sensor_id;sensor_type;location;lat;lon;timestamp;temperature;humidity
60860;DHT22;46694;54.382;9.708;2024-03-25T00:01:20;7.50;99.90
60860;DHT22;46694;54.382;9.708;2024-03-25T00:03:46;7.50;99.90
60860;DHT22;46694;54.382;9.708;2024-03-25T00:06:12;7.50;99.90
60860;DHT22;46694;54.382;9.708;2024-03-25T00:08:38;7.50;99.90
60860;DHT22;46694;54.382;9.708;2024-03-25T00:11:04;7.50;99.90
60860;DHT22;46694;54.382;9.708;2024-03-25T00:13:29;7.40;99.90
60860;DHT22;46694;54.382;9.708;2024-03-25T00:15:55;7.50;99.90
60860;DHT22;46694;54.382;9.708;2024-03-25T00:18:21;7.40;99.90
60860;DHT22;46694;54.382;9.708;2024-03-25T00:20:47;7.50;99.90
60860;DHT22;46694;54.382;9.708;2024-03-25T00:23:13;7.50;99.90
60860;DHT22;46694;54.382;9.708;2024-03-25T00:25:39;7.50;99.90
60860;DHT22;46694;54.382;9.708;2024-03-25T00:28:05;7.40;99.90
60860;DHT22;46694;54.382;9.708;2024-03-25T00:30:30;7.40;99.90
60860;DHT22;46694;54.382;9.708;2024-03-25T00:32:56;7.40;99.90
60860;DHT22;46694;54.382;9.708;2024-03-25T00:35:22;7.40;99.90
60860;DHT22;46694;54.382;9.708;2024-03-25T00:37:48;7.40;99.90
60860;DHT22;46694;54.382;9.708;2024-03-25T00:40:14;7.40;99.90
60860;DHT22;46694;54.382;9.708;2024-03-25T00:42:40;7.40;99.90
60860;DHT22;46694;54.382;9.708;2024-03-25T00:45:06;7.40;99.90
60860;DHT22;46694;54.382;9.708;2024-03-25T00:47:33;7.40;99.90
60860;DHT22;46694;54.382;9.708;2024-03-25T00:49:59;7.40;99.90
60860;DHT22;46694;54.382;9.708;2024-03-25T00:52:24;7.40;99.90
60860;DHT22;46694;54.382;9.708;2024-03-25T00:54:50;7.40;99.90
60860;DHT22;46694;54.382;9.708;2024-03-25T00:57:16;7.30;99.90
60860;DHT22;46694;54.382;9.708;2024-03-25T00:59:42;7.40;99.90
60860;DHT22;46694;54.382;9.708;2024-03-25T01:02:08;7.40;99.90
60860;DHT22;46694;54.382;9.708;2024-03-25T01:04:34;7.30;99.90
60860;DHT22;46694;54.382;9.708;2024-03-25T01:07:00;7.30;99.90
60860;DHT22;46694;54.382;9.708;2024-03-25T01:09:25;7.30;99.90
60860;DHT22;46694;54.382;9.708;2024-03-25T01:11:51;7.40;99.90
60860;DHT22;46694;54.382;9.708;2024-03-25T01:14:17;7.30;99.90
60860;DHT22;46694;54.382;9.708;2024-03-25T01:16:43;7.40;99.90
60860;DHT22;46694;54.382;9.708;2024-03-25T01:19:09;7.40;99.90
60860;DHT22;46694;54.382;9.708;2024-03-25T01:21:35;7.40;99.90
60860;DHT22;46694;54.382;9.708;2024-03-25T01:24:01;7.40;99.90
60860;DHT22;46694;54.382;9.708;2024-03-25T01:26:27;7.40;99.90
60860;DHT22;46694;54.382;9.708;2024-03-25T01:28:54;7.40;99.90
60860;DHT22;46694;54.382;9.708;2024-03-25T01:31:20;7.40;99.90
60860;DHT22;46694;54.382;9.708;2024-03-25T01:33:45;7.40;99.90
60860;DHT22;46694;54.382;9.708;2024-03-25T01:36:11;7.40;99.90
60860;DHT22;46694;54.382;9.708;2024-03-25T01:38:43;7.40;99.90
60860;DHT22;46694;54.382;9.708;2024-03-25T01:41:11;7.40;99.90
60860;DHT22;46694;54.382;9.708;2024-03-25T01:43:37;7.40;99.90
60860;DHT22;46694;54.382;9.708;2024-03-25T01:46:04;7.30;99.90
60860;DHT22;46694;54.382;9.708;2024-03-25T01:48:31;7.40;99.90
60860;DHT22;46694;54.382;9.708;2024-03-25T01:50:58;7.40;99.90
60860;DHT22;46694;54.382;9.708;2024-03-25T01:53:24;7.40;99.90
60860;DHT22;46694;54.382;9.708;2024-03-25T01:55:52;7.40;99.90
60860;DHT22;46694;54.382;9.708;2024-03-25T01:58:21;7.40;99.90
60860;DHT22;46694;54.382;9.708;2024-03-25T02:00:49;7.30;99.90
60860;DHT22;46694;54.382;9.708;2024-03-25T02:03:16;7.30;99.90
60860;DHT22;46694;54.382;9.708;2024-03-25T02:05:42;7.30;99.90
60860;DHT22;46694;54.382;9.708;2024-03-25T02:08:09;7.30;99.90
60860;DHT22;46694;54.382;9.708;2024-03-25T02:10:37;7.30;99.90
60860;DHT22;46694;54.382;9.708;2024-03-25T02:13:04;7.30;99.90
60860;DHT22;46694;54.382;9.708;2024-03-25T02:15:30;7.30;99.90
60860;DHT22;46694;54.382;9.708;2024-03-25T02:18:02;7.30;99.90
60860;DHT22;46694;54.382;9.708;2024-03-25T02:20:28;7.30;99.90
60860;DHT22;46694;54.382;9.708;2024-03-25T02:22:54;7.30;99.90
60860;DHT22;46694;54.382;9.708;2024-03-25T02:25:21;7.30;99.90
60860;DHT22;46694;54.382;9.708;2024-03-25T02:27:47;7.30;99.90
60860;DHT22;46694;54.382;9.708;2024-03-25T02:30:14;7.30;99.90
60860;DHT22;46694;54.382;9.708;2024-03-25T02:32:40;7.30;99.90
60860;DHT22;46694;54.382;9.708;2024-03-25T02:35:12;7.30;99.90
60860;DHT22;46694;54.382;9.708;2024-03-25T02:37:40;7.30;99.90
60860;DHT22;46694;54.382;9.708;2024-03-25T02:40:08;7.30;99.90
60860;DHT22;46694;54.382;9.708;2024-03-25T02:42:35;7.20;99.90
60860;DHT22;46694;54.382;9.708;2024-03-25T02:45:02;7.20;99.90
60860;DHT22;46694;54.382;9.708;2024-03-25T02:47:29;7.20;99.90
60860;DHT22;46694;54.382;9.708;2024-03-25T02:49:55;7.20;99.90
60860;DHT22;46694;54.382;9.708;2024-03-25T02:52:21;7.20;99.90
60860;DHT22;46694;54.382;9.708;2024-03-25T02:54:47;7.20;99.90
60860;DHT22;46694;54.382;9.708;2024-03-25T02:57:13;7.20;99.90
60860;DHT22;46694;54.382;9.708;2024-03-25T02:59:39;7.10;99.90
60860;DHT22;46694;54.382;9.708;2024-03-25T03:02:05;7.10;99.90
60860;DHT22;46694;54.382;9.708;2024-03-25T03:04:30;7.10;99.90
60860;DHT22;46694;54.382;9.708;2024-03-25T03:06:57;7.10;99.90
60860;DHT22;46694;54.382;9.708;2024-03-25T03:09:23;7.10;99.90
60860;DHT22;46694;54.382;9.708;2024-03-25T03:11:49;7.10;99.90
60860;DHT22;46694;54.382;9.708;2024-03-25T03:14:14;7.10;99.90
60860;DHT22;46694;54.382;9.708;2024-03-25T03:16:40;7.00;99.90
60860;DHT22;46694;54.382;9.708;2024-03-25T03:19:06;7.00;99.90
60860;DHT22;46694;54.382;9.708;2024-03-25T03:21:32;7.00;99.90
60860;DHT22;46694;54.382;9.708;2024-03-25T03:23:58;7.00;99.90
60860;DHT22;46694;54.382;9.708;2024-03-25T03:26:24;7.00;99.90
60860;DHT22;46694;54.382;9.708;2024-03-25T03:28:53;7.00;99.90
60860;DHT22;46694;54.382;9.708;2024-03-25T03:31:19;6.90;99.90
60860;DHT22;46694;54.382;9.708;2024-03-25T03:33:50;7.00;99.90
60860;DHT22;46694;54.382;9.708;2024-03-25T03:36:18;6.90;99.90
60860;DHT22;46694;54.382;9.708;2024-03-25T03:38:45;6.90;99.90
60860;DHT22;46694;54.382;9.708;2024-03-25T03:41:11;6.90;99.90
60860;DHT22;46694;54.382;9.708;2024-03-25T03:43:37;6.90;99.90
60860;DHT22;46694;54.382;9.708;2024-03-25T03:46:03;6.90;99.90
60860;DHT22;46694;54.382;9.708;2024-03-25T03:48:30;6.80;99.90
60860;DHT22;46694;54.382;9.708;2024-03-25T03:50:56;6.80;99.90
60860;DHT22;46694;54.382;9.708;2024-03-25T03:53:22;6.80;99.90
60860;DHT22;46694;54.382;9.708;2024-03-25T03:55:56;6.80;99.90
60860;DHT22;46694;54.382;9.708;2024-03-25T03:58:23;6.80;99.90
60860;DHT22;46694;54.382;9.708;2024-03-25T04:00:50;6.80;99.90
60860;DHT22;46694;54.382;9.708;2024-03-25T04:03:16;6.70;99.90
60860;DHT22;46694;54.382;9.708;2024-03-25T04:05:42;6.70;99.90
60860;DHT22;46694;54.382;9.708;2024-03-25T04:08:08;6.70;99.90
60860;DHT22;46694;54.382;9.708;2024-03-25T04:10:35;6.60;99.90
60860;DHT22;46694;54.382;9.708;2024-03-25T04:13:02;6.60;99.90
60860;DHT22;46694;54.382;9.708;2024-03-25T04:15:28;6.60;99.90
60860;DHT22;46694;54.382;9.708;2024-03-25T04:17:54;6.50;99.90
60860;DHT22;46694;54.382;9.708;2024-03-25T04:20:20;6.50;99.90
60860;DHT22;46694;54.382;9.708;2024-03-25T04:22:46;6.50;99.90
60860;DHT22;46694;54.382;9.708;2024-03-25T04:25:13;6.60;99.90
60860;DHT22;46694;54.382;9.708;2024-03-25T04:28:14;6.50;99.90
60860;DHT22;46694;54.382;9.708;2024-03-25T04:30:40;6.60;99.90
60860;DHT22;46694;54.382;9.708;2024-03-25T04:33:06;6.60;99.90
60860;DHT22;46694;54.382;9.708;2024-03-25T04:35:33;6.60;99.90
60860;DHT22;46694;54.382;9.708;2024-03-25T04:37:59;6.60;99.90
60860;DHT22;46694;54.382;9.708;2024-03-25T04:40:25;6.60;99.90
60860;DHT22;46694;54.382;9.708;2024-03-25T04:42:51;6.70;99.90
60860;DHT22;46694;54.382;9.708;2024-03-25T04:45:17;6.70;99.90
60860;DHT22;46694;54.382;9.708;2024-03-25T04:47:43;6.70;99.90
60860;DHT22;46694;54.382;9.708;2024-03-25T04:50:09;6.60;99.90
60860;DHT22;46694;54.382;9.708;2024-03-25T04:52:35;6.60;99.90
60860;DHT22;46694;54.382;9.708;2024-03-25T04:55:01;6.50;99.90
60860;DHT22;46694;54.382;9.708;2024-03-25T04:57:27;6.50;99.90
60860;DHT22;46694;54.382;9.708;2024-03-25T04:59:53;6.50;99.90
60860;DHT22;46694;54.382;9.708;2024-03-25T05:02:25;6.50;99.90
60860;DHT22;46694;54.382;9.708;2024-03-25T05:04:51;6.50;99.90
60860;DHT22;46694;54.382;9.708;2024-03-25T05:07:17;6.50;99.90
60860;DHT22;46694;54.382;9.708;2024-03-25T05:09:43;6.50;99.90
60860;DHT22;46694;54.382;9.708;2024-03-25T05:12:09;6.50;99.90
60860;DHT22;46694;54.382;9.708;2024-03-25T05:14:35;6.50;99.90
60860;DHT22;46694;54.382;9.708;2024-03-25T05:17:01;6.60;99.90
60860;DHT22;46694;54.382;9.708;2024-03-25T05:19:29;6.60;99.90
60860;DHT22;46694;54.382;9.708;2024-03-25T05:21:54;6.60;99.90
60860;DHT22;46694;54.382;9.708;2024-03-25T05:24:20;6.60;99.90
60860;DHT22;46694;54.382;9.708;2024-03-25T05:26:46;6.60;99.90
60860;DHT22;46694;54.382;9.708;2024-03-25T05:29:12;6.60;99.90
60860;DHT22;46694;54.382;9.708;2024-03-25T05:31:39;6.60;99.90
60860;DHT22;46694;54.382;9.708;2024-03-25T05:34:21;6.60;99.90
60860;DHT22;46694;54.382;9.708;2024-03-25T05:36:47;6.60;99.90
60860;DHT22;46694;54.382;9.708;2024-03-25T05:39:13;6.60;99.90
60860;DHT22;46694;54.382;9.708;2024-03-25T05:41:39;6.60;99.90
60860;DHT22;46694;54.382;9.708;2024-03-25T05:44:05;6.60;99.90
60860;DHT22;46694;54.382;9.708;2024-03-25T05:46:31;6.60;99.90
60860;DHT22;46694;54.382;9.708;2024-03-25T05:48:57;6.70;99.90
60860;DHT22;46694;54.382;9.708;2024-03-25T05:51:22;6.70;99.90
60860;DHT22;46694;54.382;9.708;2024-03-25T05:53:48;6.70;99.90
60860;DHT22;46694;54.382;9.708;2024-03-25T05:56:14;6.70;99.90
60860;DHT22;46694;54.382;9.708;2024-03-25T05:58:40;6.70;99.90
60860;DHT22;46694;54.382;9.708;2024-03-25T06:01:06;6.70;99.90
60860;DHT22;46694;54.382;9.708;2024-03-25T06:03:32;6.70;99.90
60860;DHT22;46694;54.382;9.708;2024-03-25T06:05:58;6.70;99.90
60860;DHT22;46694;54.382;9.708;2024-03-25T06:08:24;6.70;99.90
60860;DHT22;46694;54.382;9.708;2024-03-25T06:10:51;6.70;99.90
60860;DHT22;46694;54.382;9.708;2024-03-25T06:13:17;6.80;99.90
60860;DHT22;46694;54.382;9.708;2024-03-25T06:15:43;6.80;99.90
60860;DHT22;46694;54.382;9.708;2024-03-25T06:18:09;6.80;99.90
60860;DHT22;46694;54.382;9.708;2024-03-25T06:20:35;6.80;99.90
60860;DHT22;46694;54.382;9.708;2024-03-25T06:23:00;6.80;99.90
60860;DHT22;46694;54.382;9.708;2024-03-25T06:25:29;6.90;99.90
60860;DHT22;46694;54.382;9.708;2024-03-25T06:27:55;6.90;99.90
60860;DHT22;46694;54.382;9.708;2024-03-25T06:30:21;7.00;99.90
60860;DHT22;46694;54.382;9.708;2024-03-25T06:33:06;7.20;99.90
60860;DHT22;46694;54.382;9.708;2024-03-25T06:35:51;7.40;99.90
60860;DHT22;46694;54.382;9.708;2024-03-25T06:38:18;7.60;99.90
60860;DHT22;46694;54.382;9.708;2024-03-25T06:40:45;7.70;99.90
60860;DHT22;46694;54.382;9.708;2024-03-25T06:43:12;7.70;99.90
60860;DHT22;46694;54.382;9.708;2024-03-25T06:45:39;7.70;99.90
60860;DHT22;46694;54.382;9.708;2024-03-25T06:48:05;7.70;99.90
60860;DHT22;46694;54.382;9.708;2024-03-25T06:50:31;7.60;99.90
60860;DHT22;46694;54.382;9.708;2024-03-25T06:52:57;7.50;99.90
60860;DHT22;46694;54.382;9.708;2024-03-25T06:55:23;7.50;99.90
60860;DHT22;46694;54.382;9.708;2024-03-25T06:57:52;7.50;99.90
60860;DHT22;46694;54.382;9.708;2024-03-25T07:00:18;7.40;99.90
60860;DHT22;46694;54.382;9.708;2024-03-25T07:02:45;7.40;99.90
60860;DHT22;46694;54.382;9.708;2024-03-25T07:05:11;7.40;99.90
60860;DHT22;46694;54.382;9.708;2024-03-25T07:07:37;7.50;99.90
60860;DHT22;46694;54.382;9.708;2024-03-25T07:10:03;7.60;99.90
60860;DHT22;46694;54.382;9.708;2024-03-25T07:12:29;7.80;99.90
60860;DHT22;46694;54.382;9.708;2024-03-25T07:14:54;7.90;99.90
60860;DHT22;46694;54.382;9.708;2024-03-25T07:17:20;8.00;99.90
60860;DHT22;46694;54.382;9.708;2024-03-25T07:19:49;8.00;99.90
60860;DHT22;46694;54.382;9.708;2024-03-25T07:22:15;8.00;99.90
60860;DHT22;46694;54.382;9.708;2024-03-25T07:24:40;8.10;99.90
60860;DHT22;46694;54.382;9.708;2024-03-25T07:27:06;8.20;99.90
60860;DHT22;46694;54.382;9.708;2024-03-25T07:29:33;8.30;99.90
60860;DHT22;46694;54.382;9.708;2024-03-25T07:31:59;8.40;99.90
60860;DHT22;46694;54.382;9.708;2024-03-25T07:34:25;8.50;99.90
60860;DHT22;46694;54.382;9.708;2024-03-25T07:36:52;8.50;99.90
60860;DHT22;46694;54.382;9.708;2024-03-25T07:39:17;8.60;99.90
60860;DHT22;46694;54.382;9.708;2024-03-25T07:41:43;8.50;99.90
60860;DHT22;46694;54.382;9.708;2024-03-25T07:44:09;8.40;99.90
60860;DHT22;46694;54.382;9.708;2024-03-25T07:46:35;8.50;99.90
60860;DHT22;46694;54.382;9.708;2024-03-25T07:49:00;8.60;99.90
60860;DHT22;46694;54.382;9.708;2024-03-25T07:51:26;8.80;99.90
60860;DHT22;46694;54.382;9.708;2024-03-25T07:53:52;9.00;99.90
60860;DHT22;46694;54.382;9.708;2024-03-25T07:56:18;9.20;99.90
60860;DHT22;46694;54.382;9.708;2024-03-25T07:58:44;9.40;99.90
60860;DHT22;46694;54.382;9.708;2024-03-25T08:01:10;9.60;99.90
60860;DHT22;46694;54.382;9.708;2024-03-25T08:03:35;9.60;99.90
60860;DHT22;46694;54.382;9.708;2024-03-25T08:06:01;9.70;99.90
60860;DHT22;46694;54.382;9.708;2024-03-25T08:08:28;9.70;99.90
60860;DHT22;46694;54.382;9.708;2024-03-25T08:10:54;9.70;99.90
60860;DHT22;46694;54.382;9.708;2024-03-25T08:13:21;9.70;99.90
60860;DHT22;46694;54.382;9.708;2024-03-25T08:15:47;9.80;99.90
60860;DHT22;46694;54.382;9.708;2024-03-25T08:18:13;9.80;99.90
60860;DHT22;46694;54.382;9.708;2024-03-25T08:20:39;9.90;99.90
60860;DHT22;46694;54.382;9.708;2024-03-25T08:23:05;9.90;99.90
60860;DHT22;46694;54.382;9.708;2024-03-25T08:25:31;10.20;99.90
60860;DHT22;46694;54.382;9.708;2024-03-25T08:27:57;10.80;99.90
60860;DHT22;46694;54.382;9.708;2024-03-25T08:30:24;10.80;99.90
60860;DHT22;46694;54.382;9.708;2024-03-25T08:32:50;11.00;99.90
60860;DHT22;46694;54.382;9.708;2024-03-25T08:35:17;11.10;99.90
60860;DHT22;46694;54.382;9.708;2024-03-25T08:37:42;11.20;99.90
60860;DHT22;46694;54.382;9.708;2024-03-25T08:40:09;11.30;99.90
60860;DHT22;46694;54.382;9.708;2024-03-25T08:42:35;11.50;99.90
60860;DHT22;46694;54.382;9.708;2024-03-25T08:45:01;11.70;99.90
60860;DHT22;46694;54.382;9.708;2024-03-25T08:47:27;11.90;99.90
60860;DHT22;46694;54.382;9.708;2024-03-25T08:49:53;12.10;99.90
60860;DHT22;46694;54.382;9.708;2024-03-25T08:52:19;12.10;99.90
60860;DHT22;46694;54.382;9.708;2024-03-25T08:54:45;12.10;99.90
60860;DHT22;46694;54.382;9.708;2024-03-25T08:57:10;12.10;99.90
60860;DHT22;46694;54.382;9.708;2024-03-25T08:59:36;12.20;99.90
60860;DHT22;46694;54.382;9.708;2024-03-25T09:02:02;12.20;99.90
60860;DHT22;46694;54.382;9.708;2024-03-25T09:04:28;12.20;99.90
60860;DHT22;46694;54.382;9.708;2024-03-25T09:06:54;12.10;99.90
60860;DHT22;46694;54.382;9.708;2024-03-25T09:09:20;12.10;99.90
60860;DHT22;46694;54.382;9.708;2024-03-25T09:12:04;12.00;99.90
60860;DHT22;46694;54.382;9.708;2024-03-25T09:14:32;12.10;99.90
60860;DHT22;46694;54.382;9.708;2024-03-25T09:16:58;12.10;99.90
60860;DHT22;46694;54.382;9.708;2024-03-25T09:19:24;12.30;99.90
60860;DHT22;46694;54.382;9.708;2024-03-25T09:21:50;12.50;99.90
60860;DHT22;46694;54.382;9.708;2024-03-25T09:24:16;12.50;99.90
60860;DHT22;46694;54.382;9.708;2024-03-25T09:26:43;12.30;99.90
60860;DHT22;46694;54.382;9.708;2024-03-25T09:29:09;12.00;99.90
60860;DHT22;46694;54.382;9.708;2024-03-25T09:31:36;11.70;99.90
60860;DHT22;46694;54.382;9.708;2024-03-25T09:34:02;11.30;99.90
60860;DHT22;46694;54.382;9.708;2024-03-25T09:36:27;11.00;99.90
60860;DHT22;46694;54.382;9.708;2024-03-25T09:38:53;10.90;99.90
60860;DHT22;46694;54.382;9.708;2024-03-25T09:41:19;10.80;99.90
60860;DHT22;46694;54.382;9.708;2024-03-25T09:43:48;10.80;99.90
60860;DHT22;46694;54.382;9.708;2024-03-25T09:46:18;10.80;99.90
60860;DHT22;46694;54.382;9.708;2024-03-25T09:48:44;10.80;99.90
60860;DHT22;46694;54.382;9.708;2024-03-25T09:51:10;11.00;99.90
60860;DHT22;46694;54.382;9.708;2024-03-25T09:53:36;11.20;99.90
60860;DHT22;46694;54.382;9.708;2024-03-25T09:56:01;11.40;99.90
60860;DHT22;46694;54.382;9.708;2024-03-25T09:58:28;11.40;99.90
60860;DHT22;46694;54.382;9.708;2024-03-25T10:00:54;11.50;99.90
60860;DHT22;46694;54.382;9.708;2024-03-25T10:03:21;11.40;99.90
60860;DHT22;46694;54.382;9.708;2024-03-25T10:05:47;11.30;99.90
60860;DHT22;46694;54.382;9.708;2024-03-25T10:08:13;11.20;99.90
60860;DHT22;46694;54.382;9.708;2024-03-25T10:10:38;11.20;99.90
60860;DHT22;46694;54.382;9.708;2024-03-25T10:13:05;11.10;99.90
60860;DHT22;46694;54.382;9.708;2024-03-25T10:15:32;11.20;99.90
60860;DHT22;46694;54.382;9.708;2024-03-25T10:17:58;11.40;99.90
60860;DHT22;46694;54.382;9.708;2024-03-25T10:20:24;11.80;99.90
60860;DHT22;46694;54.382;9.708;2024-03-25T10:22:51;12.10;99.90
60860;DHT22;46694;54.382;9.708;2024-03-25T10:25:25;12.40;99.90
60860;DHT22;46694;54.382;9.708;2024-03-25T10:27:59;12.60;99.90
60860;DHT22;46694;54.382;9.708;2024-03-25T10:30:27;13.00;99.90
60860;DHT22;46694;54.382;9.708;2024-03-25T10:33:04;13.30;99.90
60860;DHT22;46694;54.382;9.708;2024-03-25T10:35:32;13.60;99.90
60860;DHT22;46694;54.382;9.708;2024-03-25T10:38:01;13.80;99.90
60860;DHT22;46694;54.382;9.708;2024-03-25T10:40:30;13.90;99.90
60860;DHT22;46694;54.382;9.708;2024-03-25T10:43:02;13.80;99.90
60860;DHT22;46694;54.382;9.708;2024-03-25T10:45:33;13.40;99.90
60860;DHT22;46694;54.382;9.708;2024-03-25T10:48:27;13.10;99.90
60860;DHT22;46694;54.382;9.708;2024-03-25T10:50:55;13.10;99.90
60860;DHT22;46694;54.382;9.708;2024-03-25T10:53:22;13.20;99.90
60860;DHT22;46694;54.382;9.708;2024-03-25T10:55:53;13.30;99.90
60860;DHT22;46694;54.382;9.708;2024-03-25T10:58:21;13.20;99.90
60860;DHT22;46694;54.382;9.708;2024-03-25T11:00:49;13.00;99.90
60860;DHT22;46694;54.382;9.708;2024-03-25T11:03:16;13.10;99.90
60860;DHT22;46694;54.382;9.708;2024-03-25T11:05:43;13.20;99.90
60860;DHT22;46694;54.382;9.708;2024-03-25T11:08:12;13.10;99.90
60860;DHT22;46694;54.382;9.708;2024-03-25T11:10:44;13.00;99.90
60860;DHT22;46694;54.382;9.708;2024-03-25T11:13:17;13.00;99.90
60860;DHT22;46694;54.382;9.708;2024-03-25T11:15:45;12.90;99.90
60860;DHT22;46694;54.382;9.708;2024-03-25T11:18:12;12.80;99.90
60860;DHT22;46694;54.382;9.708;2024-03-25T11:20:39;12.80;99.90
60860;DHT22;46694;54.382;9.708;2024-03-25T11:23:09;13.00;99.90
60860;DHT22;46694;54.382;9.708;2024-03-25T11:25:40;13.30;99.90
60860;DHT22;46694;54.382;9.708;2024-03-25T11:28:07;13.80;99.90
60860;DHT22;46694;54.382;9.708;2024-03-25T11:30:34;14.30;99.90
60860;DHT22;46694;54.382;9.708;2024-03-25T11:33:07;14.90;99.90
60860;DHT22;46694;54.382;9.708;2024-03-25T11:35:38;15.20;99.90
60860;DHT22;46694;54.382;9.708;2024-03-25T11:38:05;14.90;99.90
60860;DHT22;46694;54.382;9.708;2024-03-25T11:40:31;14.60;99.90
60860;DHT22;46694;54.382;9.708;2024-03-25T11:42:56;14.30;99.90
60860;DHT22;46694;54.382;9.708;2024-03-25T11:45:24;13.90;99.90
60860;DHT22;46694;54.382;9.708;2024-03-25T11:47:50;13.60;99.90
60860;DHT22;46694;54.382;9.708;2024-03-25T11:50:18;13.40;99.90
60860;DHT22;46694;54.382;9.708;2024-03-25T11:52:45;13.20;99.90
60860;DHT22;46694;54.382;9.708;2024-03-25T11:55:18;13.00;99.90
60860;DHT22;46694;54.382;9.708;2024-03-25T11:57:44;12.80;99.90
60860;DHT22;46694;54.382;9.708;2024-03-25T12:00:11;12.60;99.90
60860;DHT22;46694;54.382;9.708;2024-03-25T12:02:44;12.50;99.90
60860;DHT22;46694;54.382;9.708;2024-03-25T12:05:11;12.50;99.90
60860;DHT22;46694;54.382;9.708;2024-03-25T12:07:37;12.60;99.90
60860;DHT22;46694;54.382;9.708;2024-03-25T12:13:28;12.60;99.90
60860;DHT22;46694;54.382;9.708;2024-03-25T12:15:54;12.50;99.90
60860;DHT22;46694;54.382;9.708;2024-03-25T12:18:20;12.30;99.90
60860;DHT22;46694;54.382;9.708;2024-03-25T12:20:46;12.20;99.90
60860;DHT22;46694;54.382;9.708;2024-03-25T12:23:12;12.20;99.90
60860;DHT22;46694;54.382;9.708;2024-03-25T12:25:38;12.10;99.90
60860;DHT22;46694;54.382;9.708;2024-03-25T12:28:09;11.90;99.90
60860;DHT22;46694;54.382;9.708;2024-03-25T12:30:51;11.80;99.90
60860;DHT22;46694;54.382;9.708;2024-03-25T12:33:18;11.70;99.90
60860;DHT22;46694;54.382;9.708;2024-03-25T12:35:48;11.70;99.90
60860;DHT22;46694;54.382;9.708;2024-03-25T12:38:28;11.80;99.90
60860;DHT22;46694;54.382;9.708;2024-03-25T12:41:09;12.00;99.90
60860;DHT22;46694;54.382;9.708;2024-03-25T12:43:43;12.30;99.90
60860;DHT22;46694;54.382;9.708;2024-03-25T12:46:10;12.40;99.90
60860;DHT22;46694;54.382;9.708;2024-03-25T12:48:39;12.40;99.90
60860;DHT22;46694;54.382;9.708;2024-03-25T12:51:17;12.50;99.90
60860;DHT22;46694;54.382;9.708;2024-03-25T12:53:42;12.80;99.90
60860;DHT22;46694;54.382;9.708;2024-03-25T12:56:08;12.90;99.90
60860;DHT22;46694;54.382;9.708;2024-03-25T12:58:34;12.80;99.90
60860;DHT22;46694;54.382;9.708;2024-03-25T13:01:01;12.70;99.90
60860;DHT22;46694;54.382;9.708;2024-03-25T13:03:27;12.60;99.90
60860;DHT22;46694;54.382;9.708;2024-03-25T13:05:52;12.60;99.90
60860;DHT22;46694;54.382;9.708;2024-03-25T13:08:19;12.60;99.90
60860;DHT22;46694;54.382;9.708;2024-03-25T13:10:45;12.50;99.90
60860;DHT22;46694;54.382;9.708;2024-03-25T13:13:11;12.30;99.90
60860;DHT22;46694;54.382;9.708;2024-03-25T13:15:37;12.10;99.90
60860;DHT22;46694;54.382;9.708;2024-03-25T13:18:03;11.90;99.90
60860;DHT22;46694;54.382;9.708;2024-03-25T13:20:29;11.80;99.90
60860;DHT22;46694;54.382;9.708;2024-03-25T13:22:55;11.60;99.90
60860;DHT22;46694;54.382;9.708;2024-03-25T13:25:25;11.40;99.90
60860;DHT22;46694;54.382;9.708;2024-03-25T13:27:54;11.40;99.90
60860;DHT22;46694;54.382;9.708;2024-03-25T13:30:20;11.30;99.90
60860;DHT22;46694;54.382;9.708;2024-03-25T13:32:48;11.20;99.90
60860;DHT22;46694;54.382;9.708;2024-03-25T13:35:14;11.20;99.90
60860;DHT22;46694;54.382;9.708;2024-03-25T13:37:40;11.20;99.90
60860;DHT22;46694;54.382;9.708;2024-03-25T13:40:06;11.40;99.90
60860;DHT22;46694;54.382;9.708;2024-03-25T13:42:34;11.70;99.90
60860;DHT22;46694;54.382;9.708;2024-03-25T13:45:00;11.90;99.90
60860;DHT22;46694;54.382;9.708;2024-03-25T13:47:26;12.00;99.90
60860;DHT22;46694;54.382;9.708;2024-03-25T13:50:05;11.90;99.90
60860;DHT22;46694;54.382;9.708;2024-03-25T13:52:35;12.00;99.90
60860;DHT22;46694;54.382;9.708;2024-03-25T13:55:02;12.00;99.90
60860;DHT22;46694;54.382;9.708;2024-03-25T13:57:28;12.00;99.90
60860;DHT22;46694;54.382;9.708;2024-03-25T13:59:53;11.90;99.90
60860;DHT22;46694;54.382;9.708;2024-03-25T14:02:19;11.80;99.90
60860;DHT22;46694;54.382;9.708;2024-03-25T14:04:45;11.90;99.90
60860;DHT22;46694;54.382;9.708;2024-03-25T14:07:11;11.90;99.90
60860;DHT22;46694;54.382;9.708;2024-03-25T14:09:37;12.10;99.90
60860;DHT22;46694;54.382;9.708;2024-03-25T14:12:03;12.00;99.90
60860;DHT22;46694;54.382;9.708;2024-03-25T14:14:29;12.00;99.90
60860;DHT22;46694;54.382;9.708;2024-03-25T14:16:55;11.80;99.90
60860;DHT22;46694;54.382;9.708;2024-03-25T14:19:21;11.70;99.90
60860;DHT22;46694;54.382;9.708;2024-03-25T14:21:48;11.70;99.90
60860;DHT22;46694;54.382;9.708;2024-03-25T14:24:14;11.60;99.90
60860;DHT22;46694;54.382;9.708;2024-03-25T14:26:40;11.40;99.90
60860;DHT22;46694;54.382;9.708;2024-03-25T14:29:06;11.40;99.90
60860;DHT22;46694;54.382;9.708;2024-03-25T14:31:31;11.40;99.90
60860;DHT22;46694;54.382;9.708;2024-03-25T14:33:58;11.40;99.90
60860;DHT22;46694;54.382;9.708;2024-03-25T14:36:24;11.40;99.90
60860;DHT22;46694;54.382;9.708;2024-03-25T14:38:50;11.40;99.90
60860;DHT22;46694;54.382;9.708;2024-03-25T14:41:20;11.30;99.90
60860;DHT22;46694;54.382;9.708;2024-03-25T14:43:47;11.20;99.90
60860;DHT22;46694;54.382;9.708;2024-03-25T14:46:16;11.10;99.90
60860;DHT22;46694;54.382;9.708;2024-03-25T14:48:42;11.10;99.90
60860;DHT22;46694;54.382;9.708;2024-03-25T14:51:09;11.00;99.90
60860;DHT22;46694;54.382;9.708;2024-03-25T14:53:35;11.00;99.90
60860;DHT22;46694;54.382;9.708;2024-03-25T14:56:00;10.90;99.90
60860;DHT22;46694;54.382;9.708;2024-03-25T14:58:26;10.90;99.90
60860;DHT22;46694;54.382;9.708;2024-03-25T15:00:53;10.90;99.90
60860;DHT22;46694;54.382;9.708;2024-03-25T15:03:19;10.90;99.90
60860;DHT22;46694;54.382;9.708;2024-03-25T15:05:45;10.90;99.90
60860;DHT22;46694;54.382;9.708;2024-03-25T15:08:11;10.90;99.90
60860;DHT22;46694;54.382;9.708;2024-03-25T15:10:37;10.80;99.90
60860;DHT22;46694;54.382;9.708;2024-03-25T15:13:03;10.80;99.90
60860;DHT22;46694;54.382;9.708;2024-03-25T15:15:29;10.70;99.90
60860;DHT22;46694;54.382;9.708;2024-03-25T15:17:59;10.60;99.90
60860;DHT22;46694;54.382;9.708;2024-03-25T15:20:25;10.70;99.90
60860;DHT22;46694;54.382;9.708;2024-03-25T15:22:51;10.70;99.90
60860;DHT22;46694;54.382;9.708;2024-03-25T15:25:17;10.60;99.90
60860;DHT22;46694;54.382;9.708;2024-03-25T15:27:43;10.60;99.90
60860;DHT22;46694;54.382;9.708;2024-03-25T15:30:09;10.50;99.90
60860;DHT22;46694;54.382;9.708;2024-03-25T15:32:35;10.40;99.90
60860;DHT22;46694;54.382;9.708;2024-03-25T15:35:01;10.30;99.90
60860;DHT22;46694;54.382;9.708;2024-03-25T15:37:28;10.30;99.90
60860;DHT22;46694;54.382;9.708;2024-03-25T15:39:54;10.30;99.90
60860;DHT22;46694;54.382;9.708;2024-03-25T15:42:21;10.30;99.90